CheckWX is a tool to help pilots better visualize weather data.  It is not intended as a substitute for an official pre-flight weather briefing.

03:41:48 UTC

KHYA METAR
Barnstable Municipal-Boardman / Polando Field Airport
Hyannis, Massachusetts, USA
Current

46 mins ago

KHYA 270256Z AUTO 27006KT 10SM FEW070 SCT100 21/15 A2977 RMK AO2 SLP081 T02060150 58002
Observed
May-27 @ 02:56 UTC
Wind
  • 270° at 6 KTS
Visibility
10 SM
Flight Rules
VFR
Cloud Levels
  • Few at 7,000' AGL
  • Scattered at 10,000' AGL
Temperature
21°C / 70°F
Dewpoint
15°C / 59°F
Humidity
69%
Altimeter
29.77" Hg
Pressure
1008.12 hPa
Previous

2 hours ago

KHYA 270156Z 23010KT 10SM CLR 21/16 A2977 RMK AO2 SLP083 T02110156
Observed
May-27 @ 01:56 UTC
Wind
  • 230° at 10 KTS
Visibility
10 SM
Flight Rules
VFR
Cloud Levels
  • Clear skies
Temperature
21°C / 70°F
Dewpoint
16°C / 61°F
Humidity
73%
Altimeter
29.77" Hg
Pressure
1008.12 hPa
Previous

3 hours ago

KHYA 270056Z 24009KT 10SM CLR 22/16 A2978 RMK AO2 SLP085 T02170156
Observed
May-27 @ 00:56 UTC
Wind
  • 240° at 9 KTS
Visibility
10 SM
Flight Rules
VFR
Cloud Levels
  • Clear skies
Temperature
22°C / 72°F
Dewpoint
16°C / 61°F
Humidity
69%
Altimeter
29.78" Hg
Pressure
1008.42 hPa